createdAt,value
2017-08-08T00:07:19.810Z,1007.5
2017-08-08T00:17:35.413Z,1007.4
2017-08-08T00:27:50.425Z,1007.3
2017-08-08T00:38:04.891Z,1007.2
2017-08-08T00:48:19.221Z,1007.1
2017-08-08T00:58:34.134Z,1006.8
2017-08-08T01:08:49.474Z,1006.6
2017-08-08T01:19:03.924Z,1006.4
2017-08-08T01:29:19.125Z,1006.3
2017-08-08T01:39:33.924Z,1006.1
2017-08-08T01:49:47.665Z,1006.1
2017-08-08T02:00:02.725Z,1006
2017-08-08T02:10:18.104Z,1005.7
2017-08-08T02:20:33.117Z,1005.7
2017-08-08T02:30:48.082Z,1005.7
2017-08-08T02:41:02.861Z,1005.6
2017-08-08T02:51:18.080Z,1005.6
2017-08-08T03:01:33.754Z,1005.5
2017-08-08T03:11:48.949Z,1005.4
2017-08-08T03:22:03.508Z,1005.1
2017-08-08T03:32:18.411Z,1005
2017-08-08T03:42:32.187Z,1004.7
2017-08-08T03:52:45.974Z,1004.6
2017-08-08T04:03:01.199Z,1004.4
2017-08-08T04:13:16.338Z,1004.3
2017-08-08T04:23:31.417Z,1004.3
2017-08-08T04:33:46.883Z,1004.2
2017-08-08T04:44:01.710Z,1004.2
2017-08-08T04:54:16.502Z,1004
2017-08-08T05:04:31.938Z,1003.8
2017-08-08T05:14:46.097Z,1003.9
2017-08-08T05:24:59.880Z,1003.8
2017-08-08T05:35:14.062Z,1003.9
2017-08-08T05:45:28.281Z,1004
2017-08-08T05:55:42.947Z,1004.1
2017-08-08T06:05:56.823Z,1004
2017-08-08T06:16:11.623Z,1003.8
2017-08-08T06:26:26.590Z,1003.7
2017-08-08T06:36:40.487Z,1003.4
2017-08-08T06:46:56.206Z,1003.3
2017-08-08T06:57:10.913Z,1003.4
2017-08-08T07:07:25.395Z,1003.4
2017-08-08T07:17:41.040Z,1003.2
2017-08-08T07:27:55.923Z,1003.3
2017-08-08T07:38:09.964Z,1003.5
2017-08-08T07:48:25.371Z,1003.4
2017-08-08T07:58:40.635Z,1003.4
2017-08-08T08:08:55.492Z,1003.4
2017-08-08T08:19:11.273Z,1003.2
2017-08-08T08:29:26.303Z,1003
2017-08-08T08:39:40.297Z,1002.9
2017-08-08T08:49:54.358Z,1002.8
2017-08-08T09:00:09.824Z,1002.8
2017-08-08T09:10:24.886Z,1002.8
2017-08-08T09:20:40.502Z,1002.8
2017-08-08T09:30:55.232Z,1002.7
2017-08-08T09:41:10.217Z,1002.7
2017-08-08T09:51:25.920Z,1002.6
2017-08-08T10:01:40.678Z,1002.3
2017-08-08T10:11:55.877Z,1002.3
2017-08-08T10:22:09.860Z,1002.2
2017-08-08T10:32:24.312Z,1002.3
2017-08-08T10:42:38.891Z,1002.2
2017-08-08T10:52:53.458Z,1002.3
2017-08-08T11:03:08.136Z,1002.3
2017-08-08T11:13:23.226Z,1002.3
2017-08-08T11:23:37.559Z,1002.1
2017-08-08T11:33:51.903Z,1002.2
2017-08-08T11:44:06.838Z,1002.3
2017-08-08T11:54:22.191Z,1002.5
2017-08-08T12:04:37.597Z,1002.3
2017-08-08T12:14:51.565Z,1001.9
2017-08-08T12:25:05.618Z,1002.1
2017-08-08T12:35:19.845Z,1001.9
2017-08-08T12:45:35.531Z,1001.6
2017-08-08T12:55:50.286Z,1001.5
2017-08-08T13:06:05.976Z,1001.6
2017-08-08T13:16:21.545Z,1001.4
2017-08-08T13:26:36.806Z,1001.4
2017-08-08T13:36:51.189Z,1001.3
2017-08-08T13:47:05.496Z,1001.3
2017-08-08T13:57:20.001Z,1001.3
2017-08-08T14:07:35.177Z,1001.5
2017-08-08T14:17:49.342Z,1001.4
2017-08-08T14:28:03.698Z,1001.5
2017-08-08T14:38:19.737Z,1001.7
2017-08-08T14:48:34.723Z,1002.1
2017-08-08T14:58:48.597Z,1002.1
2017-08-08T15:09:03.510Z,1002.1
2017-08-08T15:19:17.909Z,1001.9
2017-08-08T15:29:33.063Z,1002.2
2017-08-08T15:39:48.798Z,1001.9
2017-08-08T15:50:04.357Z,1001.7
2017-08-08T16:00:19.776Z,1001.7
2017-08-08T16:10:34.684Z,1001.3
2017-08-08T16:20:48.996Z,1001.5
2017-08-08T16:31:03.384Z,1001.2
2017-08-08T16:41:18.434Z,1001.2
2017-08-08T16:51:34.005Z,1001.2
2017-08-08T17:01:48.261Z,1001.1
2017-08-08T17:12:03.693Z,1001
2017-08-08T17:22:18.047Z,1001
2017-08-08T17:32:32.812Z,1001
2017-08-08T17:42:48.155Z,1001.3
2017-08-08T17:53:02.959Z,1001.2
2017-08-08T18:03:17.846Z,1001.3
2017-08-08T18:13:31.638Z,1001.5
2017-08-08T18:23:46.554Z,1001.7
2017-08-08T18:34:00.688Z,1001.7
2017-08-08T18:44:15.952Z,1001.8
2017-08-08T18:54:31.379Z,1001.9
2017-08-08T19:04:46.578Z,1002
2017-08-08T19:15:02.053Z,1002.2
2017-08-08T19:25:17.195Z,1002.4
2017-08-08T19:35:32.230Z,1002.8
2017-08-08T19:45:47.319Z,1002.9
2017-08-08T19:56:02.765Z,1003
2017-08-08T20:06:18.067Z,1003.3
2017-08-08T20:16:31.856Z,1003.4
2017-08-08T20:26:46.289Z,1003.3
2017-08-08T20:37:01.572Z,1003.5
2017-08-08T20:47:17.025Z,1003.6
2017-08-08T20:57:31.611Z,1003.5
2017-08-08T21:07:47.007Z,1003.6
2017-08-08T21:18:02.123Z,1003.6
2017-08-08T21:28:17.038Z,1003.9
2017-08-08T21:38:32.132Z,1004.2
2017-08-08T21:48:47.576Z,1004.2
2017-08-08T21:59:01.583Z,1004.1
2017-08-08T22:09:15.410Z,1004.2
2017-08-08T22:19:29.828Z,1004.1
2017-08-08T22:29:45.274Z,1004
2017-08-08T22:39:59.332Z,1004.1
2017-08-08T22:50:14.993Z,1004
2017-08-08T23:00:28.952Z,1004.2
2017-08-08T23:10:43.841Z,1004.4
2017-08-08T23:20:58.107Z,1004.6
2017-08-08T23:31:12.413Z,1004.8
2017-08-08T23:41:26.314Z,1004.8
2017-08-08T23:51:41.309Z,1004.9
